createdAt,value
2023-03-10T00:01:04.522Z,70.52
2023-03-10T00:13:04.932Z,71.45
2023-03-10T00:25:05.370Z,74.23
2023-03-10T00:37:05.838Z,77.01
2023-03-10T00:49:06.247Z,80.38
2023-03-10T01:01:06.745Z,77.07
2023-03-10T01:13:07.165Z,77.81
2023-03-10T01:25:07.670Z,80.46
2023-03-10T01:37:08.078Z,78.57
2023-03-10T01:49:08.534Z,81.67
2023-03-10T02:01:09.089Z,83.25
2023-03-10T02:13:09.450Z,83.27
2023-03-10T02:25:09.883Z,78.76
2023-03-10T02:37:10.347Z,76.28
2023-03-10T02:49:10.823Z,83.94
2023-03-10T03:01:11.296Z,77.70
2023-03-10T03:13:11.678Z,78.84
2023-03-10T03:25:12.111Z,81.57
2023-03-10T03:37:12.609Z,83.13
2023-03-10T03:49:13.088Z,83.90
2023-03-10T04:01:13.509Z,80.37
2023-03-10T04:13:13.973Z,75.63
2023-03-10T04:25:14.414Z,77.21
2023-03-10T04:37:14.884Z,77.63
2023-03-10T04:49:15.333Z,80.08
2023-03-10T05:01:15.925Z,83.61
2023-03-10T05:13:16.222Z,84.08
2023-03-10T05:25:16.701Z,84.85
2023-03-10T05:37:17.118Z,88.62
2023-03-10T05:49:17.573Z,84.18
2023-03-10T06:01:18.026Z,84.41
2023-03-10T06:13:18.498Z,88.86
2023-03-10T06:25:18.917Z,91.10
2023-03-10T06:37:19.393Z,82.26
2023-03-10T06:49:19.846Z,70.97
2023-03-10T07:01:20.333Z,64.54
2023-03-10T07:13:20.744Z,62.83
2023-03-10T07:25:21.187Z,60.76
2023-03-10T07:37:21.649Z,60.80
2023-03-10T07:49:22.440Z,60.41
2023-03-10T08:01:22.548Z,58.36
2023-03-10T08:13:23.021Z,58.21
2023-03-10T08:25:23.431Z,56.82
2023-03-10T08:37:23.937Z,58.66
2023-03-10T08:49:24.372Z,56.45
2023-03-10T09:01:24.812Z,56.83
2023-03-10T09:13:25.285Z,54.18
2023-03-10T09:25:25.724Z,55.30
2023-03-10T09:37:26.153Z,54.80
2023-03-10T09:49:26.633Z,52.61
2023-03-10T10:01:27.091Z,51.00
2023-03-10T10:13:27.561Z,50.89
2023-03-10T10:25:28.004Z,48.63
2023-03-10T10:37:28.443Z,48.44
2023-03-10T10:49:28.899Z,47.63
2023-03-10T11:01:29.676Z,47.30
2023-03-10T11:13:29.815Z,44.51
2023-03-10T11:25:30.281Z,45.59
2023-03-10T11:37:30.739Z,44.67
2023-03-10T11:49:31.195Z,42.32
2023-03-10T12:01:31.625Z,42.09
2023-03-10T12:13:32.091Z,44.08
2023-03-10T12:25:32.565Z,43.38
2023-03-10T12:37:33.028Z,43.07
2023-03-10T12:49:33.490Z,39.59
2023-03-10T13:01:35.086Z,44.11
2023-03-10T13:13:34.351Z,42.14
2023-03-10T13:25:34.834Z,42.42
2023-03-10T13:37:35.299Z,44.40
2023-03-10T13:49:35.748Z,43.42
2023-03-10T14:01:36.225Z,44.26
2023-03-10T14:13:36.652Z,46.52
2023-03-10T14:25:37.098Z,49.51
2023-03-10T14:37:37.563Z,48.19
2023-03-10T14:49:38.012Z,49.02
2023-03-10T15:01:38.484Z,51.70
2023-03-10T15:13:38.901Z,55.32
2023-03-10T15:25:39.384Z,61.15
2023-03-10T15:37:39.804Z,79.58
2023-03-10T15:49:40.296Z,85.43
2023-03-10T16:01:40.800Z,90.21
2023-03-10T16:13:41.185Z,87.28
2023-03-10T16:25:41.613Z,90.06
2023-03-10T16:37:42.039Z,90.64
2023-03-10T16:49:42.511Z,95.09
2023-03-10T17:01:43.027Z,92.96
2023-03-10T17:13:43.426Z,89.20
2023-03-10T17:25:43.916Z,90.60
2023-03-10T17:37:44.317Z,90.13
2023-03-10T17:49:44.806Z,94.12
2023-03-10T18:01:45.286Z,91.97
2023-03-10T18:13:45.790Z,91.48
2023-03-10T18:25:46.175Z,92.37
2023-03-10T18:37:46.618Z,93.01
2023-03-10T18:49:47.063Z,94.34
2023-03-10T19:01:47.643Z,92.80
2023-03-10T19:13:47.989Z,94.76
2023-03-10T19:25:48.457Z,97.07
2023-03-10T19:37:48.897Z,99.87
2023-03-10T19:49:49.332Z,91.98
2023-03-10T20:01:49.935Z,91.13
2023-03-10T20:13:50.240Z,94.85
2023-03-10T20:25:50.732Z,95.19
2023-03-10T20:37:51.189Z,95.94
2023-03-10T20:49:51.697Z,98.41
2023-03-10T21:01:52.058Z,98.83
2023-03-10T21:13:52.515Z,99.02
2023-03-10T21:25:52.960Z,100.00
2023-03-10T21:37:53.422Z,100.00
2023-03-10T21:49:53.864Z,97.40
2023-03-10T22:01:54.354Z,93.89
2023-03-10T22:13:54.758Z,97.10
2023-03-10T22:25:55.236Z,96.38
2023-03-10T22:37:55.712Z,92.71
2023-03-10T22:49:56.135Z,94.89
2023-03-10T23:01:56.674Z,93.45
2023-03-10T23:13:57.082Z,96.72
2023-03-10T23:25:57.501Z,94.05
2023-03-10T23:37:57.948Z,95.55
2023-03-10T23:49:58.415Z,95.94
